sensor_id;sensor_type;location;lat;lon;timestamp;pressure;altitude;pressure_sealevel;temperature
85302;BMP280;75707;46.948;7.410;2024-03-08T00:00:12;949.5744629;;;3.56628418
85302;BMP280;75707;46.948;7.410;2024-03-08T00:01:13;949.5731201;;;3.495788574
85302;BMP280;75707;46.948;7.410;2024-03-08T00:02:14;949.5793457;;;3.415222168
85302;BMP280;75707;46.948;7.410;2024-03-08T00:03:15;949.5487671;;;3.385009766
85302;BMP280;75707;46.948;7.410;2024-03-08T00:04:16;949.5559082;;;3.374938965
85302;BMP280;75707;46.948;7.410;2024-03-08T00:05:17;949.571228;;;3.304443359
85302;BMP280;75707;46.948;7.410;2024-03-08T00:06:18;949.5668945;;;3.233947754
85302;BMP280;75707;46.948;7.410;2024-03-08T00:07:19;949.5270996;;;3.254089355
85302;BMP280;75707;46.948;7.410;2024-03-08T00:08:20;949.5535889;;;3.304443359
85302;BMP280;75707;46.948;7.410;2024-03-08T00:09:21;949.5673218;;;3.31451416
85302;BMP280;75707;46.948;7.410;2024-03-08T00:10:22;949.5482178;;;3.334655762
85302;BMP280;75707;46.948;7.410;2024-03-08T00:11:23;949.541626;;;3.334655762
85302;BMP280;75707;46.948;7.410;2024-03-08T00:12:23;949.5526733;;;3.284301758
85302;BMP280;75707;46.948;7.410;2024-03-08T00:13:25;949.5237427;;;3.284301758
85302;BMP280;75707;46.948;7.410;2024-03-08T00:14:57;949.5525513;;;3.334655762
85302;BMP280;75707;46.948;7.410;2024-03-08T00:15:58;949.5292969;;;3.415222168
85302;BMP280;75707;46.948;7.410;2024-03-08T00:16:59;949.5654907;;;3.44543457
85302;BMP280;75707;46.948;7.410;2024-03-08T00:18:00;949.571106;;;3.415222168
85302;BMP280;75707;46.948;7.410;2024-03-08T00:19:01;949.5328369;;;3.44543457
85302;BMP280;75707;46.948;7.410;2024-03-08T00:20:02;949.5231934;;;3.43536377
85302;BMP280;75707;46.948;7.410;2024-03-08T00:21:02;949.5317383;;;3.44543457
85302;BMP280;75707;46.948;7.410;2024-03-08T00:22:03;949.5072021;;;3.415222168
85302;BMP280;75707;46.948;7.410;2024-03-08T00:23:04;949.5390625;;;3.43536377
85302;BMP280;75707;46.948;7.410;2024-03-08T00:24:05;949.5059204;;;3.43536377
85302;BMP280;75707;46.948;7.410;2024-03-08T00:25:06;949.5316162;;;3.455505371
85302;BMP280;75707;46.948;7.410;2024-03-08T00:26:07;949.5061035;;;3.455505371
85302;BMP280;75707;46.948;7.410;2024-03-08T00:27:08;949.4885254;;;3.455505371
85302;BMP280;75707;46.948;7.410;2024-03-08T00:28:10;949.5014038;;;3.43536377
85302;BMP280;75707;46.948;7.410;2024-03-08T00:29:11;949.4788818;;;3.415222168
85302;BMP280;75707;46.948;7.410;2024-03-08T00:30:12;949.4595337;;;3.405151367
85302;BMP280;75707;46.948;7.410;2024-03-08T00:31:13;949.444519;;;3.485717773
85302;BMP280;75707;46.948;7.410;2024-03-08T00:32:14;949.4813843;;;3.56628418
85302;BMP280;75707;46.948;7.410;2024-03-08T00:33:15;949.4324951;;;3.666992188
85302;BMP280;75707;46.948;7.410;2024-03-08T00:34:16;949.46521;;;3.707275391
85302;BMP280;75707;46.948;7.410;2024-03-08T00:35:17;949.4517212;;;3.737487793
85302;BMP280;75707;46.948;7.410;2024-03-08T00:36:19;949.4285889;;;3.666992188
85302;BMP280;75707;46.948;7.410;2024-03-08T00:37:20;949.4076538;;;3.586425781
85302;BMP280;75707;46.948;7.410;2024-03-08T00:38:21;949.3970947;;;3.515930176
85302;BMP280;75707;46.948;7.410;2024-03-08T00:39:22;949.3843994;;;3.43536377
85302;BMP280;75707;46.948;7.410;2024-03-08T00:40:23;949.3933716;;;3.354797363
85302;BMP280;75707;46.948;7.410;2024-03-08T00:41:24;949.3574829;;;3.31451416
85302;BMP280;75707;46.948;7.410;2024-03-08T00:42:55;949.3634644;;;3.344726563
85302;BMP280;75707;46.948;7.410;2024-03-08T00:43:56;949.3504639;;;3.374938965
85302;BMP280;75707;46.948;7.410;2024-03-08T00:44:58;949.3847656;;;3.385009766
85302;BMP280;75707;46.948;7.410;2024-03-08T00:45:58;949.3552856;;;3.385009766
85302;BMP280;75707;46.948;7.410;2024-03-08T00:47:00;949.3615723;;;3.374938965
85302;BMP280;75707;46.948;7.410;2024-03-08T00:48:01;949.336853;;;3.415222168
85302;BMP280;75707;46.948;7.410;2024-03-08T00:49:02;949.3843994;;;3.455505371
85302;BMP280;75707;46.948;7.410;2024-03-08T00:50:03;949.3695068;;;3.515930176
85302;BMP280;75707;46.948;7.410;2024-03-08T00:51:04;949.3739014;;;3.526000977
85302;BMP280;75707;46.948;7.410;2024-03-08T00:52:05;949.3479614;;;3.56628418
85302;BMP280;75707;46.948;7.410;2024-03-08T00:53:06;949.2803345;;;3.626708984
85302;BMP280;75707;46.948;7.410;2024-03-08T00:54:07;949.3035889;;;3.666992188
85302;BMP280;75707;46.948;7.410;2024-03-08T00:55:08;949.3384399;;;3.677062988
85302;BMP280;75707;46.948;7.410;2024-03-08T00:56:09;949.3121948;;;3.69720459
85302;BMP280;75707;46.948;7.410;2024-03-08T00:57:10;949.2941895;;;3.737487793
85302;BMP280;75707;46.948;7.410;2024-03-08T00:58:11;949.2532959;;;3.777770996
85302;BMP280;75707;46.948;7.410;2024-03-08T00:59:12;949.2330322;;;3.898620605
85302;BMP280;75707;46.948;7.410;2024-03-08T01:00:13;949.236084;;;3.95904541
85302;BMP280;75707;46.948;7.410;2024-03-08T01:01:14;949.2484131;;;3.898620605
85302;BMP280;75707;46.948;7.410;2024-03-08T01:02:15;949.1984253;;;3.838195801
85302;BMP280;75707;46.948;7.410;2024-03-08T01:03:17;949.2422485;;;3.747558594
85302;BMP280;75707;46.948;7.410;2024-03-08T01:04:19;949.2485352;;;3.666992188
85302;BMP280;75707;46.948;7.410;2024-03-08T01:05:21;949.236084;;;3.666992188
85302;BMP280;75707;46.948;7.410;2024-03-08T01:06:22;949.2306519;;;3.636779785
85302;BMP280;75707;46.948;7.410;2024-03-08T01:07:23;949.2439575;;;3.677062988
85302;BMP280;75707;46.948;7.410;2024-03-08T01:08:24;949.2128906;;;3.666992188
85302;BMP280;75707;46.948;7.410;2024-03-08T01:09:55;949.2218018;;;3.69720459
85302;BMP280;75707;46.948;7.410;2024-03-08T01:10:56;949.2076416;;;3.596496582
85302;BMP280;75707;46.948;7.410;2024-03-08T01:11:57;949.2111206;;;3.616638184
85302;BMP280;75707;46.948;7.410;2024-03-08T01:12:58;949.1842041;;;3.616638184
85302;BMP280;75707;46.948;7.410;2024-03-08T01:13:59;949.1729126;;;3.556213379
85302;BMP280;75707;46.948;7.410;2024-03-08T01:15:00;949.1846924;;;3.495788574
85302;BMP280;75707;46.948;7.410;2024-03-08T01:16:01;949.1400757;;;3.43536377
85302;BMP280;75707;46.948;7.410;2024-03-08T01:17:02;949.1502075;;;3.385009766
85302;BMP280;75707;46.948;7.410;2024-03-08T01:18:04;949.1239014;;;3.374938965
85302;BMP280;75707;46.948;7.410;2024-03-08T01:19:05;949.1037598;;;3.415222168
85302;BMP280;75707;46.948;7.410;2024-03-08T01:20:06;949.0973511;;;3.43536377
85302;BMP280;75707;46.948;7.410;2024-03-08T01:21:07;949.1351318;;;3.44543457
85302;BMP280;75707;46.948;7.410;2024-03-08T01:22:08;949.1246338;;;3.455505371
85302;BMP280;75707;46.948;7.410;2024-03-08T01:23:09;949.1188354;;;3.485717773
85302;BMP280;75707;46.948;7.410;2024-03-08T01:24:10;949.0804443;;;3.515930176
85302;BMP280;75707;46.948;7.410;2024-03-08T01:25:11;949.0779419;;;3.495788574
85302;BMP280;75707;46.948;7.410;2024-03-08T01:26:11;949.071106;;;3.485717773
85302;BMP280;75707;46.948;7.410;2024-03-08T01:27:13;949.071106;;;3.44543457
85302;BMP280;75707;46.948;7.410;2024-03-08T01:28:13;949.069519;;;3.515930176
85302;BMP280;75707;46.948;7.410;2024-03-08T01:29:15;949.0162354;;;3.495788574
85302;BMP280;75707;46.948;7.410;2024-03-08T01:30:16;949.0120239;;;3.526000977
85302;BMP280;75707;46.948;7.410;2024-03-08T01:31:17;949.0148315;;;3.56628418
85302;BMP280;75707;46.948;7.410;2024-03-08T01:32:18;948.977417;;;3.556213379
85302;BMP280;75707;46.948;7.410;2024-03-08T01:33:19;948.9710083;;;3.556213379
85302;BMP280;75707;46.948;7.410;2024-03-08T01:34:20;948.965332;;;3.556213379
85302;BMP280;75707;46.948;7.410;2024-03-08T01:35:21;948.9871826;;;3.556213379
85302;BMP280;75707;46.948;7.410;2024-03-08T01:36:22;948.9899902;;;3.536071777
85302;BMP280;75707;46.948;7.410;2024-03-08T01:37:23;948.9254761;;;3.596496582
85302;BMP280;75707;46.948;7.410;2024-03-08T01:38:55;948.9035645;;;3.626708984
85302;BMP280;75707;46.948;7.410;2024-03-08T01:39:55;948.8942261;;;3.616638184
85302;BMP280;75707;46.948;7.410;2024-03-08T01:40:56;948.8936157;;;3.586425781
85302;BMP280;75707;46.948;7.410;2024-03-08T01:41:57;948.84021;;;3.56628418
85302;BMP280;75707;46.948;7.410;2024-03-08T01:43:14;948.8573608;;;3.56628418
85302;BMP280;75707;46.948;7.410;2024-03-08T01:43:59;948.8425293;;;3.596496582
85302;BMP280;75707;46.948;7.410;2024-03-08T01:45:00;948.8851318;;;3.626708984
85302;BMP280;75707;46.948;7.410;2024-03-08T01:46:02;948.8830566;;;3.636779785
85302;BMP280;75707;46.948;7.410;2024-03-08T01:47:03;948.901123;;;3.666992188
85302;BMP280;75707;46.948;7.410;2024-03-08T01:48:04;948.9193726;;;3.636779785
85302;BMP280;75707;46.948;7.410;2024-03-08T01:49:05;948.9284668;;;3.626708984
85302;BMP280;75707;46.948;7.410;2024-03-08T01:50:06;948.9092407;;;3.596496582
85302;BMP280;75707;46.948;7.410;2024-03-08T01:51:07;948.923584;;;3.515930176
85302;BMP280;75707;46.948;7.410;2024-03-08T01:52:08;948.8973389;;;3.485717773
85302;BMP280;75707;46.948;7.410;2024-03-08T01:53:09;948.8950806;;;3.44543457
85302;BMP280;75707;46.948;7.410;2024-03-08T01:54:10;948.8383789;;;3.43536377
85302;BMP280;75707;46.948;7.410;2024-03-08T01:55:11;948.8318481;;;3.495788574
85302;BMP280;75707;46.948;7.410;2024-03-08T01:56:12;948.7722168;;;3.495788574
85302;BMP280;75707;46.948;7.410;2024-03-08T01:57:13;948.7253418;;;3.44543457
85302;BMP280;75707;46.948;7.410;2024-03-08T01:58:14;948.6738892;;;3.415222168
85302;BMP280;75707;46.948;7.410;2024-03-08T01:59:15;948.6976318;;;3.455505371
85302;BMP280;75707;46.948;7.410;2024-03-08T02:00:16;948.6211548;;;3.455505371
85302;BMP280;75707;46.948;7.410;2024-03-08T02:01:17;948.6060791;;;3.455505371
85302;BMP280;75707;46.948;7.410;2024-03-08T02:02:18;948.5738525;;;3.374938965
85302;BMP280;75707;46.948;7.410;2024-03-08T02:03:19;948.586853;;;3.334655762
85302;BMP280;75707;46.948;7.410;2024-03-08T02:04:20;948.592041;;;3.31451416
85302;BMP280;75707;46.948;7.410;2024-03-08T02:05:21;948.5663452;;;3.334655762
85302;BMP280;75707;46.948;7.410;2024-03-08T02:06:22;948.5470581;;;3.374938965
85302;BMP280;75707;46.948;7.410;2024-03-08T02:07:24;948.4938965;;;3.526000977
85302;BMP280;75707;46.948;7.410;2024-03-08T02:08:55;948.4865723;;;3.56628418
85302;BMP280;75707;46.948;7.410;2024-03-08T02:09:56;948.5153809;;;3.596496582
85302;BMP280;75707;46.948;7.410;2024-03-08T02:10:57;948.506958;;;3.56628418
85302;BMP280;75707;46.948;7.410;2024-03-08T02:11:58;948.4603271;;;3.526000977
85302;BMP280;75707;46.948;7.410;2024-03-08T02:12:59;948.4641113;;;3.415222168
85302;BMP280;75707;46.948;7.410;2024-03-08T02:14:00;948.4590454;;;3.304443359
85302;BMP280;75707;46.948;7.410;2024-03-08T02:15:01;948.4480591;;;3.233947754
85302;BMP280;75707;46.948;7.410;2024-03-08T02:16:02;948.4384155;;;3.203735352
85302;BMP280;75707;46.948;7.410;2024-03-08T02:17:02;948.3963013;;;3.173522949
85302;BMP280;75707;46.948;7.410;2024-03-08T02:18:04;948.3707886;;;3.163452148
85302;BMP280;75707;46.948;7.410;2024-03-08T02:19:05;948.3845215;;;3.203735352
85302;BMP280;75707;46.948;7.410;2024-03-08T02:20:06;948.3733521;;;3.233947754
85302;BMP280;75707;46.948;7.410;2024-03-08T02:21:07;948.3439941;;;3.344726563
85302;BMP280;75707;46.948;7.410;2024-03-08T02:22:08;948.3688965;;;3.43536377
85302;BMP280;75707;46.948;7.410;2024-03-08T02:23:09;948.3660889;;;3.455505371
85302;BMP280;75707;46.948;7.410;2024-03-08T02:24:10;948.4193115;;;3.495788574
85302;BMP280;75707;46.948;7.410;2024-03-08T02:25:11;948.4018555;;;3.485717773
85302;BMP280;75707;46.948;7.410;2024-03-08T02:26:11;948.3884277;;;3.495788574
85302;BMP280;75707;46.948;7.410;2024-03-08T02:27:12;948.3839111;;;3.556213379
85302;BMP280;75707;46.948;7.410;2024-03-08T02:28:13;948.3691406;;;3.56628418
85302;BMP280;75707;46.948;7.410;2024-03-08T02:29:14;948.3226318;;;3.556213379
85302;BMP280;75707;46.948;7.410;2024-03-08T02:30:15;948.2561035;;;3.536071777
85302;BMP280;75707;46.948;7.410;2024-03-08T02:31:16;948.2757568;;;3.495788574
85302;BMP280;75707;46.948;7.410;2024-03-08T02:32:17;948.274353;;;3.515930176
85302;BMP280;75707;46.948;7.410;2024-03-08T02:33:18;948.1959229;;;3.515930176
85302;BMP280;75707;46.948;7.410;2024-03-08T02:34:18;948.2146606;;;3.536071777
85302;BMP280;75707;46.948;7.410;2024-03-08T02:35:19;948.1713867;;;3.56628418
85302;BMP280;75707;46.948;7.410;2024-03-08T02:36:20;948.1843262;;;3.596496582
85302;BMP280;75707;46.948;7.410;2024-03-08T02:37:21;948.21698;;;3.616638184
85302;BMP280;75707;46.948;7.410;2024-03-08T02:38:22;948.2014771;;;3.616638184
85302;BMP280;75707;46.948;7.410;2024-03-08T02:39:23;948.1484375;;;3.536071777
85302;BMP280;75707;46.948;7.410;2024-03-08T02:40:55;948.1859131;;;3.526000977
85302;BMP280;75707;46.948;7.410;2024-03-08T02:41:56;948.1473389;;;3.515930176
85302;BMP280;75707;46.948;7.410;2024-03-08T02:42:57;948.1959229;;;3.455505371
85302;BMP280;75707;46.948;7.410;2024-03-08T02:43:57;948.1790771;;;3.455505371
85302;BMP280;75707;46.948;7.410;2024-03-08T02:44:58;948.229248;;;3.455505371
85302;BMP280;75707;46.948;7.410;2024-03-08T02:45:59;948.2073364;;;3.44543457
85302;BMP280;75707;46.948;7.410;2024-03-08T02:47:00;948.1629639;;;3.44543457
85302;BMP280;75707;46.948;7.410;2024-03-08T02:48:01;948.1885986;;;3.455505371
85302;BMP280;75707;46.948;7.410;2024-03-08T02:49:02;948.1430664;;;3.43536377
85302;BMP280;75707;46.948;7.410;2024-03-08T02:50:03;948.2365112;;;3.44543457
85302;BMP280;75707;46.948;7.410;2024-03-08T02:51:04;948.1609497;;;3.455505371
85302;BMP280;75707;46.948;7.410;2024-03-08T02:52:04;948.1567383;;;3.43536377
85302;BMP280;75707;46.948;7.410;2024-03-08T02:53:05;948.1543579;;;3.385009766
85302;BMP280;75707;46.948;7.410;2024-03-08T02:54:06;948.1613159;;;3.344726563
85302;BMP280;75707;46.948;7.410;2024-03-08T02:55:07;948.1478882;;;3.31451416
85302;BMP280;75707;46.948;7.410;2024-03-08T02:56:08;948.1217041;;;3.334655762
85302;BMP280;75707;46.948;7.410;2024-03-08T02:57:09;948.1213989;;;3.334655762
85302;BMP280;75707;46.948;7.410;2024-03-08T02:58:10;948.0932617;;;3.354797363
85302;BMP280;75707;46.948;7.410;2024-03-08T02:59:11;948.06073;;;3.374938965
85302;BMP280;75707;46.948;7.410;2024-03-08T03:00:12;948.0767212;;;3.43536377
85302;BMP280;75707;46.948;7.410;2024-03-08T03:01:12;948.0753174;;;3.43536377
85302;BMP280;75707;46.948;7.410;2024-03-08T03:02:13;948.078064;;;3.44543457
85302;BMP280;75707;46.948;7.410;2024-03-08T03:03:14;948.0733032;;;3.485717773
85302;BMP280;75707;46.948;7.410;2024-03-08T03:04:15;948.0759888;;;3.485717773
85302;BMP280;75707;46.948;7.410;2024-03-08T03:05:16;948.03125;;;3.536071777
85302;BMP280;75707;46.948;7.410;2024-03-08T03:06:17;948.0265503;;;3.56628418
85302;BMP280;75707;46.948;7.410;2024-03-08T03:07:18;948.0309448;;;3.536071777
85302;BMP280;75707;46.948;7.410;2024-03-08T03:08:19;947.9780273;;;3.56628418
85302;BMP280;75707;46.948;7.410;2024-03-08T03:09:20;948.0326538;;;3.556213379
85302;BMP280;75707;46.948;7.410;2024-03-08T03:10:20;948.0039063;;;3.536071777
85302;BMP280;75707;46.948;7.410;2024-03-08T03:11:22;947.9899902;;;3.515930176
85302;BMP280;75707;46.948;7.410;2024-03-08T03:12:23;947.9906006;;;3.515930176
85302;BMP280;75707;46.948;7.410;2024-03-08T03:13:54;947.96875;;;3.536071777
85302;BMP280;75707;46.948;7.410;2024-03-08T03:14:55;948.0081787;;;3.536071777
85302;BMP280;75707;46.948;7.410;2024-03-08T03:15:56;947.9393921;;;3.485717773
85302;BMP280;75707;46.948;7.410;2024-03-08T03:16:57;947.944397;;;3.455505371
85302;BMP280;75707;46.948;7.410;2024-03-08T03:17:58;947.9185791;;;3.44543457
85302;BMP280;75707;46.948;7.410;2024-03-08T03:18:58;947.9451294;;;3.515930176
85302;BMP280;75707;46.948;7.410;2024-03-08T03:19:59;947.9475098;;;3.485717773
85302;BMP280;75707;46.948;7.410;2024-03-08T03:21:03;947.9251709;;;3.485717773
85302;BMP280;75707;46.948;7.410;2024-03-08T03:22:03;947.9299316;;;3.43536377
85302;BMP280;75707;46.948;7.410;2024-03-08T03:24:03;947.9317017;;;3.44543457
85302;BMP280;75707;46.948;7.410;2024-03-08T03:25:04;947.902832;;;3.44543457
85302;BMP280;75707;46.948;7.410;2024-03-08T03:26:05;947.9032593;;;3.44543457
85302;BMP280;75707;46.948;7.410;2024-03-08T03:27:06;947.9376831;;;3.415222168
85302;BMP280;75707;46.948;7.410;2024-03-08T03:28:07;947.9371338;;;3.354797363
85302;BMP280;75707;46.948;7.410;2024-03-08T03:29:08;947.9076538;;;3.31451416
85302;BMP280;75707;46.948;7.410;2024-03-08T03:30:09;947.9266968;;;3.254089355
85302;BMP280;75707;46.948;7.410;2024-03-08T03:31:10;947.9163818;;;3.264160156
85302;BMP280;75707;46.948;7.410;2024-03-08T03:32:11;947.9522095;;;3.233947754
85302;BMP280;75707;46.948;7.410;2024-03-08T03:33:12;947.8707886;;;3.233947754
85302;BMP280;75707;46.948;7.410;2024-03-08T03:34:13;947.8859253;;;3.264160156
85302;BMP280;75707;46.948;7.410;2024-03-08T03:35:14;947.8786011;;;3.233947754
85302;BMP280;75707;46.948;7.410;2024-03-08T03:36:14;947.8903198;;;3.223876953
85302;BMP280;75707;46.948;7.410;2024-03-08T03:37:15;947.873291;;;3.223876953
85302;BMP280;75707;46.948;7.410;2024-03-08T03:38:16;947.8954468;;;3.223876953
85302;BMP280;75707;46.948;7.410;2024-03-08T03:39:17;947.9146729;;;3.193664551
85302;BMP280;75707;46.948;7.410;2024-03-08T03:40:23;947.8989258;;;3.193664551
85302;BMP280;75707;46.948;7.410;2024-03-08T03:41:20;947.9283447;;;3.153381348
85302;BMP280;75707;46.948;7.410;2024-03-08T03:42:20;947.878418;;;3.163452148
85302;BMP280;75707;46.948;7.410;2024-03-08T03:43:24;947.9211426;;;3.163452148
85302;BMP280;75707;46.948;7.410;2024-03-08T03:44:24;947.9191284;;;3.203735352
85302;BMP280;75707;46.948;7.410;2024-03-08T03:45:55;947.9070435;;;3.304443359
85302;BMP280;75707;46.948;7.410;2024-03-08T03:47:01;947.8759155;;;3.304443359
85302;BMP280;75707;46.948;7.410;2024-03-08T03:48:24;947.8967285;;;3.31451416
85302;BMP280;75707;46.948;7.410;2024-03-08T03:49:58;947.8710938;;;3.344726563
85302;BMP280;75707;46.948;7.410;2024-03-08T03:50:58;947.8947144;;;3.334655762
85302;BMP280;75707;46.948;7.410;2024-03-08T03:52:00;947.8984375;;;3.344726563
85302;BMP280;75707;46.948;7.410;2024-03-08T03:53:01;947.897644;;;3.344726563
85302;BMP280;75707;46.948;7.410;2024-03-08T03:54:02;947.8401489;;;3.264160156
85302;BMP280;75707;46.948;7.410;2024-03-08T03:55:03;947.8666382;;;3.193664551
85302;BMP280;75707;46.948;7.410;2024-03-08T03:56:04;947.8508301;;;3.103027344
85302;BMP280;75707;46.948;7.410;2024-03-08T03:57:05;947.8453369;;;3.123168945
85302;BMP280;75707;46.948;7.410;2024-03-08T03:58:06;947.828125;;;3.123168945
85302;BMP280;75707;46.948;7.410;2024-03-08T03:59:07;947.8045044;;;3.163452148
85302;BMP280;75707;46.948;7.410;2024-03-08T04:00:08;947.8201294;;;3.173522949
85302;BMP280;75707;46.948;7.410;2024-03-08T04:01:09;947.7732544;;;3.163452148
85302;BMP280;75707;46.948;7.410;2024-03-08T04:02:10;947.7991943;;;3.163452148
85302;BMP280;75707;46.948;7.410;2024-03-08T04:03:11;947.78302;;;3.163452148
85302;BMP280;75707;46.948;7.410;2024-03-08T04:04:12;947.8093872;;;3.153381348
85302;BMP280;75707;46.948;7.410;2024-03-08T04:05:13;947.8493042;;;3.123168945
85302;BMP280;75707;46.948;7.410;2024-03-08T04:06:14;947.7963867;;;3.082885742
85302;BMP280;75707;46.948;7.410;2024-03-08T04:07:15;947.8192139;;;3.042602539
85302;BMP280;75707;46.948;7.410;2024-03-08T04:08:31;947.8035889;;;2.941894531
85302;BMP280;75707;46.948;7.410;2024-03-08T04:10:18;947.7868042;;;2.901611328
85302;BMP280;75707;46.948;7.410;2024-03-08T04:11:19;947.7959595;;;2.901611328
85302;BMP280;75707;46.948;7.410;2024-03-08T04:12:20;947.7542725;;;2.92175293
85302;BMP280;75707;46.948;7.410;2024-03-08T04:13:21;947.7781372;;;2.951965332
85302;BMP280;75707;46.948;7.410;2024-03-08T04:14:22;947.742981;;;2.972106934
85302;BMP280;75707;46.948;7.410;2024-03-08T04:15:54;947.7697754;;;2.972106934
85302;BMP280;75707;46.948;7.410;2024-03-08T04:16:55;947.7651367;;;2.992248535
85302;BMP280;75707;46.948;7.410;2024-03-08T04:17:56;947.793335;;;3.022460938
85302;BMP280;75707;46.948;7.410;2024-03-08T04:18:57;947.8046875;;;3.05267334
85302;BMP280;75707;46.948;7.410;2024-03-08T04:19:58;947.8283081;;;3.123168945
85302;BMP280;75707;46.948;7.410;2024-03-08T04:20:59;947.7494507;;;3.133239746
85302;BMP280;75707;46.948;7.410;2024-03-08T04:22:00;947.7650146;;;3.173522949
85302;BMP280;75707;46.948;7.410;2024-03-08T04:23:01;947.762207;;;3.254089355
85302;BMP280;75707;46.948;7.410;2024-03-08T04:24:02;947.7477417;;;3.123168945
85302;BMP280;75707;46.948;7.410;2024-03-08T04:25:03;947.7567139;;;3.082885742
85302;BMP280;75707;46.948;7.410;2024-03-08T04:26:04;947.7091675;;;3.072814941
85302;BMP280;75707;46.948;7.410;2024-03-08T04:27:05;947.7265625;;;3.103027344
85302;BMP280;75707;46.948;7.410;2024-03-08T04:28:06;947.7062378;;;3.103027344
85302;BMP280;75707;46.948;7.410;2024-03-08T04:29:07;947.725708;;;3.042602539
85302;BMP280;75707;46.948;7.410;2024-03-08T04:30:09;947.7106934;;;2.992248535
85302;BMP280;75707;46.948;7.410;2024-03-08T04:31:10;947.6885376;;;2.951965332
85302;BMP280;75707;46.948;7.410;2024-03-08T04:32:11;947.7122803;;;2.901611328
85302;BMP280;75707;46.948;7.410;2024-03-08T04:33:11;947.6842041;;;2.891540527
85302;BMP280;75707;46.948;7.410;2024-03-08T04:34:12;947.6880493;;;2.972106934
85302;BMP280;75707;46.948;7.410;2024-03-08T04:35:13;947.6890869;;;3.072814941
85302;BMP280;75707;46.948;7.410;2024-03-08T04:36:15;947.6729736;;;3.133239746
85302;BMP280;75707;46.948;7.410;2024-03-08T04:37:15;947.6860962;;;3.103027344
85302;BMP280;75707;46.948;7.410;2024-03-08T04:38:16;947.6651611;;;3.082885742
85302;BMP280;75707;46.948;7.410;2024-03-08T04:39:18;947.6817017;;;3.103027344
85302;BMP280;75707;46.948;7.410;2024-03-08T04:40:18;947.6574707;;;3.082885742
85302;BMP280;75707;46.948;7.410;2024-03-08T04:41:19;947.6314697;;;3.133239746
85302;BMP280;75707;46.948;7.410;2024-03-08T04:42:20;947.5960693;;;3.153381348
85302;BMP280;75707;46.948;7.410;2024-03-08T04:43:21;947.5440674;;;2.982177734
85302;BMP280;75707;46.948;7.410;2024-03-08T04:44:53;947.5150146;;;2.901611328
85302;BMP280;75707;46.948;7.410;2024-03-08T04:45:54;947.513855;;;2.891540527
85302;BMP280;75707;46.948;7.410;2024-03-08T04:46:55;947.5009155;;;2.871398926
85302;BMP280;75707;46.948;7.410;2024-03-08T04:47:56;947.482666;;;2.92175293
85302;BMP280;75707;46.948;7.410;2024-03-08T04:48:57;947.4401855;;;2.951965332
85302;BMP280;75707;46.948;7.410;2024-03-08T04:49:58;947.4099121;;;3.042602539
85302;BMP280;75707;46.948;7.410;2024-03-08T04:50:59;947.3591919;;;3.103027344
85302;BMP280;75707;46.948;7.410;2024-03-08T04:52:00;947.3648682;;;3.103027344
85302;BMP280;75707;46.948;7.410;2024-03-08T04:53:01;947.368103;;;3.123168945
85302;BMP280;75707;46.948;7.410;2024-03-08T04:54:02;947.3504639;;;3.123168945
85302;BMP280;75707;46.948;7.410;2024-03-08T04:55:03;947.3607788;;;3.123168945
85302;BMP280;75707;46.948;7.410;2024-03-08T04:56:04;947.329834;;;3.133239746
85302;BMP280;75707;46.948;7.410;2024-03-08T04:57:05;947.359375;;;3.153381348
85302;BMP280;75707;46.948;7.410;2024-03-08T04:58:06;947.3623657;;;3.153381348
85302;BMP280;75707;46.948;7.410;2024-03-08T04:59:06;947.373291;;;3.173522949
85302;BMP280;75707;46.948;7.410;2024-03-08T05:00:08;947.4135742;;;3.193664551
85302;BMP280;75707;46.948;7.410;2024-03-08T05:01:08;947.4103394;;;3.173522949
85302;BMP280;75707;46.948;7.410;2024-03-08T05:02:10;947.368103;;;3.133239746
85302;BMP280;75707;46.948;7.410;2024-03-08T05:03:11;947.413147;;;3.153381348
85302;BMP280;75707;46.948;7.410;2024-03-08T05:04:12;947.4344482;;;3.163452148
85302;BMP280;75707;46.948;7.410;2024-03-08T05:05:13;947.3918457;;;3.163452148
85302;BMP280;75707;46.948;7.410;2024-03-08T05:06:14;947.3171997;;;3.163452148
85302;BMP280;75707;46.948;7.410;2024-03-08T05:07:15;947.3616943;;;3.173522949
85302;BMP280;75707;46.948;7.410;2024-03-08T05:08:16;947.368103;;;3.123168945
85302;BMP280;75707;46.948;7.410;2024-03-08T05:09:16;947.380249;;;3.103027344
85302;BMP280;75707;46.948;7.410;2024-03-08T05:10:17;947.4001465;;;3.123168945
85302;BMP280;75707;46.948;7.410;2024-03-08T05:11:18;947.368103;;;3.153381348
85302;BMP280;75707;46.948;7.410;2024-03-08T05:12:19;947.4243164;;;3.123168945
85302;BMP280;75707;46.948;7.410;2024-03-08T05:13:20;947.3875122;;;3.103027344
85302;BMP280;75707;46.948;7.410;2024-03-08T05:14:21;947.3811035;;;3.103027344
85302;BMP280;75707;46.948;7.410;2024-03-08T05:15:53;947.3543701;;;3.163452148
85302;BMP280;75707;46.948;7.410;2024-03-08T05:16:53;947.3495483;;;3.193664551
85302;BMP280;75707;46.948;7.410;2024-03-08T05:17:54;947.3562622;;;3.223876953
85302;BMP280;75707;46.948;7.410;2024-03-08T05:18:56;947.3817139;;;3.233947754
85302;BMP280;75707;46.948;7.410;2024-03-08T05:19:57;947.4143677;;;3.223876953